This is the latest recevied weather packets stored in our database for station/object N0EDB-13. If no packets are shown the sender has not sent any weather packets the latest 10 day(s).
| Time | Temp. | Humidity | Pressure | Rain* | Wind** | Luminosity | Snow |
|---|---|---|---|---|---|---|---|
| 1777828564 | 22.22° C | 20% | 1468 hPa | 0 mm | - | 418 W/m² | - |
| 1777828264 | 22.22° C | 21% | 1468.7 hPa | 0 mm | - | 405 W/m² | - |
| 1777827964 | 22.22° C | 22% | 1468.7 hPa | 0 mm | - | 431 W/m² | - |
| 1777827663 | 21.67° C | 21% | 1468.9 hPa | 0 mm | - | 451 W/m² | - |
| 1777827362 | 22.22° C | 22% | 1468.5 hPa | 0 mm | - | 490 W/m² | - |
| 1777827061 | 22.22° C | 22% | 1468.8 hPa | 0 mm | - | 528 W/m² | - |
| 1777826760 | 21.67° C | 22% | 1469.2 hPa | 0 mm | - | 532 W/m² | - |
| 1777826459 | 21.67° C | 22% | 1469.2 hPa | 0 mm | - | 492 W/m² | - |
| 1777826159 | 21.67° C | 23% | 1469.9 hPa | 0 mm | - | 496 W/m² | - |
| 1777825858 | 21.67° C | 24% | 1470.3 hPa | 0 mm | - | 598 W/m² | - |
| 1777825557 | 21.11° C | 24% | 1471 hPa | 0 mm | - | 558 W/m² | - |
| 1777825257 | 21.11° C | 24% | 1472.1 hPa | 0 mm | - | 502 W/m² | - |
| 1777824957 | 21.11° C | 25% | 1471.7 hPa | 0 mm | - | 513 W/m² | - |
| 1777824657 | 21.11° C | 26% | 1470.9 hPa | 0 mm | - | 477 W/m² | - |
| 1777824356 | 21.11° C | 26% | 1472 hPa | 0 mm | - | 583 W/m² | - |
| 1777824056 | 20.56° C | 27% | 1473.2 hPa | 0 mm | - | 608 W/m² | - |
| 1777823755 | 19.44° C | 28% | 1475.3 hPa | 0 mm | - | 548 W/m² | - |
| 1777823454 | 18.89° C | 30% | 1477.1 hPa | 0 mm | - | 651 W/m² | - |
| 1777823153 | 18.89° C | 30% | 1478.3 hPa | 0 mm | - | 461 W/m² | - |
| 1777822852 | 18.33° C | 30% | 1479.5 hPa | 0 mm | - | 428 W/m² | - |
| 1777822552 | 17.78° C | 32% | 1480.6 hPa | 0 mm | - | 455 W/m² | - |
| 1777822251 | 17.78° C | 33% | 1481.4 hPa | 0 mm | - | 426 W/m² | - |
| 1777821950 | 17.22° C | 33% | 1481.9 hPa | 0 mm | - | 433 W/m² | - |
| 1777821649 | 17.22° C | 35% | 1482.2 hPa | 0 mm | - | 411 W/m² | - |
| 1777821348 | 17.22° C | 32% | 1482.6 hPa | 0 mm | - | 356 W/m² | - |
* Rain latest hour (hover to see other rain measurements)
** Current wind speed in m/s (hover to see current wind gust speed)